Lepelstraat, Netherlands
Current Conditions -  °F | °C
As of 2:08 PM on Saturday 25 Oct 2014 (Local Time) from EHWO Reporting Station
Broken Clouds Broken Clouds  
Wind Chill: 59°   Ceiling: 3200
Heat Index: 59°   Visibility: 6mi
Dew Point: 52°   Wind: 14mph
Humidity: 77%   Direction: 260°W
Pressure: 30.06"   Gusts: NA
Location:  51.55°N, 4.28°E
Report Text: EHWO 251208Z AUTO 26012KT 9999 FEW022 SCT028 BKN032 15/11 Q1018 BLU
Loading
Personal Weather Stations






























Interactive Weather Map
Tropical Storm Tracking
New forecast layout! Learn more

10-Day Weather Forecast

Advertisements
Track Severe Weather on mobile